Saint Clair, Missouri
Current Conditions -  °F | °C
As of 3:15 AM on Monday 24 Nov 2014 (Local Time) from KFYG Reporting Station
Light Rain Light Rain  
Wind Chill: 27°   Ceiling: 2600
Heat Index: 37°   Visibility: 7mi
Dew Point: 36°   Wind: 20mph
Humidity: 93%   Direction: 300°WNW
Pressure: 29.41"   Gusts: 35mph
Location:  38.35°N, 90.98°W
Report Text: KFYG 240915Z AUTO 30017G30KT 7SM -RA SCT015 BKN026 BKN032 03/02 A2941 RMK AO2
Loading
Personal Weather Stations






























Interactive Weather Map New forecast layout! Learn more

10-Day Weather Forecast

Advertisements
Track Severe Weather on mobile